ID Time Temp Humidity Light PM2.5 PM10 Voltage Firmware Position Fcnt Gateways Distance RSSI LSNR Radiosettings
105 2019-07-21 22:13:20 18.75°C 74% 3.3V v2 52.2003 / 5.40955 4788 tonzttn 0.22km -109 5 868.5Mhz, SF9BW125, 4/5CR
105 2019-07-21 21:55:47 19.0625°C 72.3125% 3.31V v2 52.2003 / 5.40955 4787 tonzttn 0.22km -111 5.25 867.9Mhz, SF9BW125, 4/5CR
Meetjestad #4 (De Koperhorst) 3.729km -120 -8.25 867.9Mhz, SF9BW125, 4/5CR
Meetjestad #6 (La Balise) 3.015km -121 -12.5 867.9Mhz, SF9BW125, 4/5CR
105 2019-07-21 21:38:14 19.125°C 72.625% 3.3V v2 52.2003 / 5.40955 4786 tonzttn 0.22km -106 7 868.3Mhz, SF9BW125, 4/5CR
Meetjestad #4 (De Koperhorst) 3.729km -115 -11.5 868.3Mhz, SF9BW125, 4/5CR
105 2019-07-21 21:20:40 19.1875°C 71.8125% 3.3V v2 52.2003 / 5.40955 4785 tonzttn 0.22km -109 7 867.7Mhz, SF9BW125, 4/5CR
Meetjestad #4 (De Koperhorst) 3.729km -118 -11.5 867.7Mhz, SF9BW125, 4/5CR
Meetjestad #6 (La Balise) 3.015km -118 -11.75 867.7Mhz, SF9BW125, 4/5CR
105 2019-07-21 21:03:07 19.4375°C 71% 3.3V v2 52.2003 / 5.40955 4784 tonzttn 0.22km -106 7 868.1Mhz, SF9BW125, 4/5CR
Meetjestad #4 (De Koperhorst) 3.729km -120 -9.75 868.1Mhz, SF9BW125, 4/5CR
105 2019-07-21 20:45:34 19.9375°C 69.5625% 3.3V v2 52.2003 / 5.40955 4783 tonzttn 0.22km -107 6.5 867.5Mhz, SF9BW125, 4/5CR
Meetjestad #6 (La Balise) 3.015km -120 -11.25 867.5Mhz, SF9BW125, 4/5CR
105 2019-07-21 20:28:00 20.5625°C 65.875% 3.3V v2 52.2003 / 5.40955 4782 tonzttn 0.22km -103 6.5 868.5Mhz, SF9BW125, 4/5CR
105 2019-07-21 19:52:52 21.1875°C 63.125% 3.3V v2 52.2003 / 5.40955 4780 tonzttn 0.22km -107 8.25 868.3Mhz, SF9BW125, 4/5CR
105 2019-07-21 19:35:18 21.75°C 61.75% 3.3V v2 52.2003 / 5.40955 4779 tonzttn 0.22km -105 11 867.1Mhz, SF9BW125, 4/5CR
Meetjestad #4 (De Koperhorst) 3.729km -120 -9.5 867.1Mhz, SF9BW125, 4/5CR
Meetjestad #6 (La Balise) 3.015km -120 -11.25 867.1Mhz, SF9BW125, 4/5CR
105 2019-07-21 19:17:43 22.4375°C 59.125% 3.3V v2 52.2003 / 5.40955 4778 tonzttn 0.22km -109 7.75 868.1Mhz, SF9BW125, 4/5CR
105 2019-07-21 19:00:09 23.0625°C 58.625% 3.3V v2 52.2003 / 5.40955 4777 tonzttn 0.22km -105 9.25 867.9Mhz, SF9BW125, 4/5CR
Meetjestad #4 (De Koperhorst) 3.729km -120 -10.5 867.9Mhz, SF9BW125, 4/5CR
Meetjestad #6 (La Balise) 3.015km -119 -12.75 867.9Mhz, SF9BW125, 4/5CR
105 2019-07-21 18:42:34 23.6875°C 56.8125% 3.3V v2 52.2003 / 5.40955 4776 tonzttn 0.22km -107 6.5 868.5Mhz, SF9BW125, 4/5CR
105 2019-07-21 18:24:59 23.75°C 56.625% 3.3V v2 52.2003 / 5.40955 4775 tonzttn 0.22km -105 10.25 867.7Mhz, SF9BW125, 4/5CR
105 2019-07-21 18:07:24 23.3125°C 59.3125% 3.3V v2 52.2003 / 5.40955 4774 tonzttn 0.22km -108 6.75 868.3Mhz, SF9BW125, 4/5CR
Meetjestad #6 (La Balise) 3.015km -119 -11.75 868.3Mhz, SF9BW125, 4/5CR
105 2019-07-21 17:49:49 23.625°C 58.125% 3.3V v2 52.2003 / 5.40955 4773 tonzttn 0.22km -102 6.75 867.5Mhz, SF9BW125, 4/5CR
Meetjestad #4 (De Koperhorst) 3.729km -115 -10.5 867.5Mhz, SF9BW125, 4/5CR
105 2019-07-21 17:32:14 23.875°C 58.5625% 3.3V v2 52.2003 / 5.40955 4772 tonzttn 0.22km -109 6 868.1Mhz, SF9BW125, 4/5CR
105 2019-07-21 17:14:39 24.125°C 56.125% 3.3V v2 52.2003 / 5.40955 4771 tonzttn 0.22km -99 10.25 867.3Mhz, SF9BW125, 4/5CR
Meetjestad #6 (La Balise) 3.015km -120 -12.5 867.3Mhz, SF9BW125, 4/5CR
eui-fcc23dfffe0f0bc2 5.724km -115 -14.8 867.3Mhz, SF9BW125, 4/5CR
105 2019-07-21 16:57:04 24.1875°C 55.75% 3.3V v2 52.2003 / 5.40955 4770 tonzttn 0.22km -107 5.75 868.5Mhz, SF9BW125, 4/5CR
Meetjestad #6 (La Balise) 3.015km -117 -12.75 868.5Mhz, SF9BW125, 4/5CR
105 2019-07-21 16:39:29 24.0625°C 57.1875% 3.3V v2 52.2003 / 5.40955 4769 tonzttn 0.22km -107 10 867.1Mhz, SF9BW125, 4/5CR
105 2019-07-21 16:21:54 23.5625°C 59.0625% 3.3V v2 52.2003 / 5.40955 4768 tonzttn 0.22km -109 5 868.3Mhz, SF9BW125, 4/5CR
Meetjestad #6 (La Balise) 3.015km -119 -13.25 868.3Mhz, SF9BW125, 4/5CR
105 2019-07-21 16:04:19 24.25°C 56.0625% 3.3V v2 52.2003 / 5.40955 4767 tonzttn 0.22km -111 7.5 867.9Mhz, SF9BW125, 4/5CR
Meetjestad #6 (La Balise) 3.015km -120 -13.75 867.9Mhz, SF9BW125, 4/5CR
105 2019-07-21 15:46:44 23.6875°C 59.6875% 3.3V v2 52.2003 / 5.40955 4766 tonzttn 0.22km -109 8.75 868.1Mhz, SF9BW125, 4/5CR
Meetjestad #4 (De Koperhorst) 3.729km -120 -8 868.1Mhz, SF9BW125, 4/5CR
105 2019-07-21 15:29:08 24.6875°C 57.125% 3.3V v2 52.2003 / 5.40955 4765 tonzttn 0.22km -109 7 867.7Mhz, SF9BW125, 4/5CR
Meetjestad #6 (La Balise) 3.015km -119 -12.75 867.7Mhz, SF9BW125, 4/5CR
105 2019-07-21 15:11:33 24.375°C 57.3125% 3.3V v2 52.2003 / 5.40955 4764 tonzttn 0.22km -109 4.25 868.5Mhz, SF9BW125, 4/5CR
Meetjestad #6 (La Balise) 3.015km -119 -10 868.5Mhz, SF9BW125, 4/5CR
105 2019-07-21 14:53:58 24.3125°C 58.5% 3.3V v2 52.2003 / 5.40955 4763 tonzttn 0.22km -103 7.5 867.5Mhz, SF9BW125, 4/5CR
Meetjestad #4 (De Koperhorst) 3.729km -115 -11 867.5Mhz, SF9BW125, 4/5CR
105 2019-07-21 14:36:23 24.625°C 58.375% 3.3V v2 52.2003 / 5.40955 4762 tonzttn 0.22km -107 7 868.3Mhz, SF9BW125, 4/5CR
105 2019-07-21 14:18:47 24.5°C 60.25% 3.3V v2 52.2003 / 5.40955 4761 tonzttn 0.22km -105 10.5 867.3Mhz, SF9BW125, 4/5CR
Meetjestad #4 (De Koperhorst) 3.729km -117 -11.5 867.3Mhz, SF9BW125, 4/5CR
105 2019-07-21 14:01:12 23.0625°C 63.3125% 3.3V v2 52.2003 / 5.40955 4760 tonzttn 0.22km -109 4.75 868.1Mhz, SF9BW125, 4/5CR
Meetjestad #4 (De Koperhorst) 3.729km -120 -5 868.1Mhz, SF9BW125, 4/5CR
Meetjestad #6 (La Balise) 3.015km -120 -11.75 868.1Mhz, SF9BW125, 4/5CR
105 2019-07-21 13:43:38 23.3125°C 63.75% 3.3V v2 52.2003 / 5.40955 4759 tonzttn 0.22km -107 10.25 867.1Mhz, SF9BW125, 4/5CR
Meetjestad #4 (De Koperhorst) 3.729km -118 -4.25 867.1Mhz, SF9BW125, 4/5CR
Meetjestad #6 (La Balise) 3.015km -121 -13.75 867.1Mhz, SF9BW125, 4/5CR
105 2019-07-21 13:26:03 23.1875°C 64.875% 3.3V v2 52.2003 / 5.40955 4758 tonzttn 0.22km -105 6.75 868.5Mhz, SF9BW125, 4/5CR
Meetjestad #6 (La Balise) 3.015km -118 -10.25 868.5Mhz, SF9BW125, 4/5CR
Meetjestad #4 (De Koperhorst) 3.729km -119 -12.25 868.5Mhz, SF9BW125, 4/5CR
105 2019-07-21 13:08:28 22.75°C 65.4375% 3.3V v2 52.2003 / 5.40955 4757 tonzttn 0.22km -108 8.25 867.9Mhz, SF9BW125, 4/5CR
Meetjestad #4 (De Koperhorst) 3.729km -118 -14 867.9Mhz, SF9BW125, 4/5CR
105 2019-07-21 12:50:53 23.875°C 61.3125% 3.3V v2 52.2003 / 5.40955 4756 tonzttn 0.22km -107 7 868.3Mhz, SF9BW125, 4/5CR
105 2019-07-21 12:33:18 22.8125°C 64.6875% 3.3V v2 52.2003 / 5.40955 4755 tonzttn 0.22km -107 9.5 867.7Mhz, SF9BW125, 4/5CR
105 2019-07-21 12:15:43 23.625°C 64.5% 3.3V v2 52.2003 / 5.40955 4754 tonzttn 0.22km -111 7.75 868.1Mhz, SF9BW125, 4/5CR
105 2019-07-21 11:58:08 22.875°C 66.75% 3.3V v2 52.2003 / 5.40955 4753 tonzttn 0.22km -105 7.5 867.5Mhz, SF9BW125, 4/5CR
105 2019-07-21 11:40:33 23.25°C 65.0625% 3.3V v2 52.2003 / 5.40955 4752 tonzttn 0.22km -105 6.75 868.5Mhz, SF9BW125, 4/5CR
105 2019-07-21 11:22:58 23.0625°C 66.4375% 3.3V v2 52.2003 / 5.40955 4751 tonzttn 0.22km -102 8.75 867.3Mhz, SF9BW125, 4/5CR
Meetjestad #6 (La Balise) 3.015km -120 -10.5 867.3Mhz, SF9BW125, 4/5CR
Meetjestad #4 (De Koperhorst) 3.729km -116 -10.75 867.3Mhz, SF9BW125, 4/5CR
105 2019-07-21 11:05:24 22.8125°C 65.625% 3.3V v2 52.2003 / 5.40955 4750 tonzttn 0.22km -104 7.5 868.3Mhz, SF9BW125, 4/5CR
105 2019-07-21 10:47:49 22.625°C 69% 3.3V v2 52.2003 / 5.40955 4749 tonzttn 0.22km -109 9.25 867.1Mhz, SF9BW125, 4/5CR
Meetjestad #4 (De Koperhorst) 3.729km -120 -7.25 867.1Mhz, SF9BW125, 4/5CR
105 2019-07-21 10:30:15 21.875°C 70.375% 3.3V v2 52.2003 / 5.40955 4748 tonzttn 0.22km -109 8.75 868.1Mhz, SF9BW125, 4/5CR
Meetjestad #4 (De Koperhorst) 3.729km -118 -10.5 868.1Mhz, SF9BW125, 4/5CR
105 2019-07-21 10:12:41 21.25°C 73% 3.3V v2 52.2003 / 5.40955 4747 tonzttn 0.22km -109 7.5 867.9Mhz, SF9BW125, 4/5CR
Meetjestad #4 (De Koperhorst) 3.729km -120 -7.5 867.9Mhz, SF9BW125, 4/5CR
105 2019-07-21 09:55:07 20.875°C 73.4375% 3.3V v2 52.2003 / 5.40955 4746 tonzttn 0.22km -111 3.75 868.5Mhz, SF9BW125, 4/5CR
Meetjestad #6 (La Balise) 3.015km -119 -8.5 868.5Mhz, SF9BW125, 4/5CR
105 2019-07-21 09:37:33 20.8125°C 75.1875% 3.3V v2 52.2003 / 5.40955 4745 tonzttn 0.22km -105 10.5 867.7Mhz, SF9BW125, 4/5CR
105 2019-07-21 09:19:59 20.1875°C 80.375% 3.3V v2 52.2003 / 5.40955 4744 tonzttn 0.22km -108 7.75 868.3Mhz, SF9BW125, 4/5CR
105 2019-07-21 09:02:26 18.875°C 84.6875% 3.3V v2 52.2003 / 5.40955 4743 tonzttn 0.22km -107 7.25 867.5Mhz, SF9BW125, 4/5CR
105 2019-07-21 08:44:52 18.9375°C 85.1875% 3.3V v2 52.2003 / 5.40955 4742 tonzttn 0.22km -111 6 868.1Mhz, SF9BW125, 4/5CR
Meetjestad #4 (De Koperhorst) 3.729km -120 -12.75 868.1Mhz, SF9BW125, 4/5CR
105 2019-07-21 08:27:19 19°C 88.1875% 3.3V v2 52.2003 / 5.40955 4741 tonzttn 0.22km -103 8.25 867.3Mhz, SF9BW125, 4/5CR
Meetjestad #4 (De Koperhorst) 3.729km -118 -9.5 867.3Mhz, SF9BW125, 4/5CR
105 2019-07-21 08:09:46 18.75°C 89.9375% 3.31V v2 52.2003 / 5.40955 4740 tonzttn 0.22km -107 5.75 868.5Mhz, SF9BW125, 4/5CR
105 2019-07-21 07:52:13 17.75°C 95.9375% 3.3V v2 52.2003 / 5.40955 4739 tonzttn 0.22km -107 8.5 867.1Mhz, SF9BW125, 4/5CR
Meetjestad #4 (De Koperhorst) 3.729km -118 -8 867.1Mhz, SF9BW125, 4/5CR
Meetjestad #6 (La Balise) 3.015km -121 -12 867.1Mhz, SF9BW125, 4/5CR
105 2019-07-21 07:34:40 17.125°C 100.312% 3.31V v2 52.2003 / 5.40955 4738 tonzttn 0.22km -108 6.25 868.3Mhz, SF9BW125, 4/5CR

Message count: 50

Node count: 1

Messages per node

Number of messages in list aboveNodes
50105

Statistics per gateway

GatewayNumber of messagesNumber of nodesNodes
tonzttn (filter)501105 (0.22km)
Meetjestad #4 (De Koperhorst) (filter)211105 (3.729km)
Meetjestad #6 (La Balise) (filter)181105 (3.015km)
eui-fcc23dfffe0f0bc2 (filter)11105 (5.724km)

Filter by dataset